Time;durP1;ratioP1;P1;durP2;ratioP2;P2;SDS_P1;SDS_P2;PMS_P1;PMS_P2;Temp;Humidity;BMP_temperature;BMP_pressure;BME280_temperature;BME280_humidity;BME280_pressure;Samples;Min_cycle;Max_cycle;Signal;HPM_P1;HPM_P2
2022/02/03 00:02:35;;;;;;;23.65;12.80;;;;;;;8.42;97.42;101981.47;5056060;28;20032;-65
2022/02/03 00:05:12;;;;;;;23.88;12.63;;;;;;;8.38;97.61;101977.56;5037394;28;20070;-65
2022/02/03 00:22:03;;;;;;;25.27;12.27;;;;;;;8.35;97.31;101965.75;5055882;28;20083;-64
2022/02/03 00:24:23;;;;;;;21.80;12.35;;;;;;;8.26;97.93;101969.19;5054864;28;20411;-64
2022/02/03 00:27:20;;;;;;;26.35;13.07;;;;;;;8.31;97.59;101962.63;5037432;28;20452;-64
2022/02/03 00:30:00;;;;;;;26.40;12.75;;;;;;;8.30;97.42;101963.59;5055543;28;20044;-64
2022/02/03 00:35:09;;;;;;;24.70;12.07;;;;;;;8.34;96.59;101964.13;5055323;28;20388;-64
2022/02/03 00:49:04;;;;;;;23.77;12.18;;;;;;;8.32;97.04;101966.84;5054834;28;20031;-64
2022/02/03 00:51:28;;;;;;;23.00;12.15;;;;;;;8.38;96.89;101968.06;5053804;28;20061;-64
2022/02/03 00:53:58;;;;;;;29.45;12.80;;;;;;;8.27;96.52;101974.19;5054482;28;20051;-64
2022/02/03 00:56:33;;;;;;;24.00;12.55;;;;;;;8.29;96.68;101961.19;5054336;28;20057;-63
2022/02/03 00:59:29;;;;;;;28.17;12.30;;;;;;;8.33;97.41;101967.66;5036498;28;20333;-63
2022/02/03 01:01:58;;;;;;;27.60;12.38;;;;;;;8.32;96.61;101963.47;5053605;28;20098;-64
2022/02/03 01:04:28;;;;;;;26.63;11.52;;;;;;;8.26;97.46;101966.63;5036137;28;20033;-64
2022/02/03 01:06:56;;;;;;;23.25;12.20;;;;;;;8.38;97.19;101970.63;5036123;28;20083;-64
2022/02/03 01:09:28;;;;;;;23.00;11.27;;;;;;;8.33;96.59;101962.50;5036172;28;20021;-63
2022/02/03 01:12:20;;;;;;;29.13;12.20;;;;;;;8.31;96.11;101961.84;5036088;28;20029;-64
2022/02/03 01:44:46;;;;;;;26.45;11.02;;;;;;;8.36;96.01;101924.41;5054255;28;20042;-64
2022/02/03 01:52:39;;;;;;;27.15;11.43;;;;;;;8.33;95.78;101914.38;5053879;28;20075;-64
2022/02/03 01:55:11;;;;;;;26.52;11.90;;;;;;;8.29;95.41;101904.53;5053256;28;20027;-64
2022/02/03 01:57:41;;;;;;;28.80;12.05;;;;;;;8.29;95.70;101909.69;5053690;28;20037;-63
2022/02/03 02:00:10;;;;;;;30.20;12.48;;;;;;;8.25;95.96;101905.75;5053256;28;20111;-63
2022/02/03 02:02:42;;;;;;;27.75;12.20;;;;;;;8.25;96.23;101909.13;5053210;28;20064;-64
2022/02/03 02:05:35;;;;;;;32.03;13.13;;;;;;;8.22;96.25;101899.13;5035296;28;20578;-64
2022/02/03 02:08:09;;;;;;;25.63;12.07;;;;;;;8.33;96.10;101905.84;5053170;28;20111;-64
2022/02/03 02:11:13;;;;;;;34.80;12.82;;;;;;;8.36;95.21;101901.22;5053412;28;20421;-64
2022/02/03 02:17:24;;;;;;;36.40;14.20;;;;;;;8.29;95.66;101891.66;5053232;28;20080;-63
2022/02/03 02:44:11;;;;;;;43.53;22.90;;;;;;;8.10;95.95;101870.19;5057310;28;20033;-63
2022/02/03 02:46:52;;;;;;;54.70;24.25;;;;;;;8.14;95.77;101874.13;5038957;28;20025;-63
2022/02/03 02:49:42;;;;;;;51.90;24.33;;;;;;;8.17;95.81;101867.03;5057013;28;20017;-63
2022/02/03 02:52:12;;;;;;;50.83;24.58;;;;;;;8.16;95.72;101862.84;5056930;28;20024;-63
2022/02/03 03:01:39;;;;;;;49.40;23.38;;;;;;;8.22;95.04;101842.47;5016057;28;20373;-64
2022/02/03 03:34:09;;;;;;;43.60;22.70;;;;;;;8.10;94.36;101777.50;5056345;28;20033;-64
2022/02/03 03:36:37;;;;;;;;;;;;;;;8.23;93.94;101773.75;5055997;28;20032;-64
2022/02/03 03:39:03;;;;;;;38.42;19.80;;;;;;;8.21;94.06;101767.97;5055729;28;20264;-64
2022/02/03 03:41:34;;;;;;;39.42;20.27;;;;;;;8.16;93.84;101777.88;5055703;28;20120;-63
2022/02/03 03:44:03;;;;;;;36.83;19.42;;;;;;;8.05;94.07;101777.13;5055673;28;20104;-63
2022/02/03 03:46:36;;;;;;;43.03;20.95;;;;;;;8.16;94.73;101776.09;5055589;28;20016;-64
2022/02/03 03:49:07;;;;;;;41.97;19.88;;;;;;;8.21;94.27;101784.22;5055673;28;20379;-64
2022/02/03 03:51:56;;;;;;;47.20;20.15;;;;;;;8.08;94.19;101776.81;5055623;28;20443;-63
2022/02/03 03:54:38;;;;;;;40.00;18.30;;;;;;;8.03;94.73;101773.09;5056020;28;20028;-64
2022/02/03 03:57:39;;;;;;;35.83;18.40;;;;;;;8.10;93.96;101763.81;5037499;28;20029;-63
2022/02/03 04:32:23;;;;;;;25.08;11.32;;;;;;;7.98;93.05;101736.69;5004384;28;20115;-64
2022/02/03 04:55:47;;;;;;;23.95;10.60;;;;;;;7.88;92.25;101692.97;5054824;28;20541;-65
2022/02/03 05:11:12;;;;;;;24.33;8.93;;;;;;;7.87;91.85;101693.94;5054555;28;20115;-65
2022/02/03 05:14:23;;;;;;;20.90;8.85;;;;;;;7.78;91.46;101680.19;5036133;28;20487;-64
2022/02/03 05:17:21;;;;;;;24.13;8.05;;;;;;;7.87;91.39;101688.81;5053490;28;20155;-65
2022/02/03 05:20:34;;;;;;;21.88;7.97;;;;;;;7.86;90.54;101682.84;5053176;28;20025;-65
2022/02/03 05:51:34;;;;;;;15.23;5.30;;;;;;;7.73;89.62;101645.56;5053432;28;20471;-65
2022/02/03 06:05:09;;;;;;;13.23;4.95;;;;;;;7.80;89.09;101637.13;5053436;28;20565;-64
2022/02/03 06:15:49;;;;;;;13.70;4.20;;;;;;;7.82;87.62;101611.22;5053068;28;20057;-62
2022/02/03 06:23:57;;;;;;;13.07;4.22;;;;;;;7.84;88.54;101599.84;5053050;28;20179;-65
2022/02/03 06:29:14;;;;;;;14.55;4.25;;;;;;;7.82;87.73;101591.44;5053840;28;20071;-64
2022/02/03 06:31:42;;;;;;;14.18;4.70;;;;;;;7.86;87.68;101600.50;5035066;28;20120;-65
2022/02/03 06:34:08;;;;;;;10.07;4.00;;;;;;;7.82;87.28;101588.88;5035132;28;20523;-65
2022/02/03 06:36:36;;;;;;;15.63;4.50;;;;;;;7.81;88.06;101587.25;5052834;28;20099;-64
2022/02/03 06:39:02;;;;;;;10.13;4.20;;;;;;;7.77;88.44;101577.41;5034905;28;20025;-65
2022/02/03 06:41:28;;;;;;;20.00;4.63;;;;;;;7.73;87.93;101571.75;5052869;28;20082;-63
2022/02/03 06:43:53;;;;;;;12.40;4.35;;;;;;;7.75;87.61;101566.47;5052852;28;20029;-65
2022/02/03 06:46:19;;;;;;;11.88;4.30;;;;;;;7.80;87.56;101562.50;5053068;28;20017;-66
2022/02/03 06:48:52;;;;;;;11.90;3.90;;;;;;;7.77;87.43;101551.69;5053029;28;20025;-64
2022/02/03 06:51:28;;;;;;;12.27;4.20;;;;;;;7.67;87.74;101554.34;5052858;28;20036;-64
2022/02/03 06:53:59;;;;;;;11.05;4.13;;;;;;;7.64;87.77;101559.78;5053050;28;20025;-65
2022/02/03 06:56:51;;;;;;;10.30;3.92;;;;;;;7.57;87.87;101558.78;5052678;28;20029;-63
2022/02/03 06:59:16;;;;;;;16.88;4.70;;;;;;;7.75;87.43;101561.31;5052260;28;20025;-64
2022/02/03 07:01:43;;;;;;;11.77;4.22;;;;;;;7.70;87.29;101559.19;5052719;28;20025;-64
2022/02/03 07:04:23;;;;;;;15.80;4.07;;;;;;;7.75;87.83;101559.56;5034705;28;20027;-65
2022/02/03 07:06:48;;;;;;;10.07;4.20;;;;;;;7.73;87.34;101545.22;5034489;28;20028;-65
2022/02/03 07:09:13;;;;;;;11.63;4.07;;;;;;;7.72;87.32;101538.47;5034556;28;20028;-64
2022/02/03 07:11:40;;;;;;;13.07;4.60;;;;;;;7.67;87.16;101537.13;5053644;28;20025;-65
2022/02/03 07:14:08;;;;;;;9.00;4.38;;;;;;;7.77;87.17;101539.63;5056513;28;20021;-65
2022/02/03 07:16:36;;;;;;;10.43;4.82;;;;;;;7.75;87.47;101545.88;5038521;28;20052;-65
2022/02/03 07:19:02;;;;;;;10.73;4.32;;;;;;;7.68;87.57;101561.09;5039616;28;20084;-66
2022/02/03 07:21:27;;;;;;;14.95;4.45;;;;;;;7.69;87.85;101555.81;5038124;28;20056;-64
2022/02/03 07:23:53;;;;;;;13.90;4.70;;;;;;;7.71;87.21;101560.00;5056016;28;20111;-66
2022/02/03 07:26:18;;;;;;;14.10;4.80;;;;;;;7.82;87.57;101557.19;5038130;28;20032;-66
2022/02/03 07:28:43;;;;;;;17.38;5.20;;;;;;;7.73;87.20;101560.66;5055736;28;20083;-65
2022/02/03 07:31:08;;;;;;;14.52;4.90;;;;;;;7.77;86.79;101567.09;5037948;28;20160;-65
2022/02/03 07:33:34;;;;;;;14.50;5.10;;;;;;;7.61;87.05;101575.53;5037948;28;20021;-65
2022/02/03 07:36:00;;;;;;;13.93;5.15;;;;;;;7.65;87.75;101574.25;5055826;28;20407;-65
2022/02/03 07:38:25;;;;;;;17.20;4.88;;;;;;;7.70;87.11;101566.91;5055939;28;20029;-64
2022/02/03 07:40:51;;;;;;;12.10;4.88;;;;;;;7.74;86.60;101559.69;5055787;28;20027;-65
2022/02/03 07:43:17;;;;;;;12.18;4.90;;;;;;;7.71;86.78;101537.66;5055633;28;20032;-65
2022/02/03 07:45:43;;;;;;;14.68;5.18;;;;;;;7.83;86.99;101538.25;5055665;28;20014;-64
2022/02/03 07:48:08;;;;;;;11.10;4.75;;;;;;;7.67;86.67;101526.03;5038246;28;20111;-63
2022/02/03 07:50:34;;;;;;;12.43;5.20;;;;;;;7.62;87.10;101534.22;5037630;28;20067;-66
2022/02/03 07:52:59;;;;;;;14.02;5.07;;;;;;;7.66;87.28;101529.59;5056127;28;20056;-64
2022/02/03 07:55:25;;;;;;;14.95;5.43;;;;;;;7.61;86.78;101537.75;5055281;28;20021;-66
2022/02/03 07:57:52;;;;;;;11.45;5.15;;;;;;;7.59;86.67;101534.50;5036371;28;20116;-66
2022/02/03 08:00:19;;;;;;;10.82;4.88;;;;;;;7.54;87.65;101539.31;5053900;28;20028;-64
2022/02/03 08:02:45;;;;;;;10.68;5.40;;;;;;;7.51;87.93;101547.31;5053446;28;20029;-64
2022/02/03 08:05:13;;;;;;;14.07;5.28;;;;;;;7.56;87.31;101534.78;5053296;28;20074;-65
2022/02/03 08:08:04;;;;;;;19.10;5.97;;;;;;;7.62;87.29;101544.53;5035345;28;20280;-65
2022/02/03 08:10:37;;;;;;;23.90;6.05;;;;;;;7.57;86.90;101533.06;5053581;28;20029;-64
2022/02/03 08:13:05;;;;;;;16.48;6.32;;;;;;;7.65;87.17;101523.63;5054948;28;20070;-64
2022/02/03 08:15:32;;;;;;;15.18;6.35;;;;;;;7.73;86.95;101527.22;5054954;28;20040;-65
2022/02/03 08:18:03;;;;;;;14.65;6.90;;;;;;;7.61;87.55;101532.59;5054921;28;20029;-64
2022/02/03 08:20:29;;;;;;;15.77;6.53;;;;;;;7.62;87.17;101523.09;5037168;28;20063;-63
2022/02/03 08:25:44;;;;;;;14.73;6.95;;;;;;;7.61;87.53;101511.22;5055346;28;20040;-65
2022/02/03 08:28:42;;;;;;;13.45;6.78;;;;;;;7.61;86.78;101501.72;5037040;28;20112;-62
2022/02/03 08:31:11;;;;;;;16.95;6.68;;;;;;;7.61;87.49;101511.22;5054427;28;20036;-65
2022/02/03 08:33:37;;;;;;;14.55;7.18;;;;;;;7.79;86.93;101506.81;5052927;28;20029;-66
2022/02/03 08:36:05;;;;;;;16.75;7.00;;;;;;;7.73;87.27;101496.34;5032031;28;20052;-65
2022/02/03 08:41:00;;;;;;;14.32;7.30;;;;;;;7.80;86.40;101498.16;5052417;28;20060;-66
2022/02/03 08:43:28;;;;;;;17.20;8.13;;;;;;;7.72;86.88;101484.44;5052228;28;20025;-65
2022/02/03 08:45:54;;;;;;;15.90;7.93;;;;;;;7.72;87.22;101489.59;5051321;28;20403;-66
2022/02/03 08:48:20;;;;;;;16.40;7.68;;;;;;;7.65;87.80;101485.06;5051182;28;20032;-68
2022/02/03 08:50:45;;;;;;;16.52;8.35;;;;;;;7.68;88.78;101491.63;5052517;28;20033;-63
2022/02/03 08:53:17;;;;;;;14.80;8.00;;;;;;;7.47;90.07;101486.81;5053273;28;20043;-66
2022/02/03 08:55:54;;;;;;;15.80;8.68;;;;;;;7.34;91.21;101491.56;5035050;28;20064;-64
2022/02/03 09:29:31;;;;;;;18.60;9.63;;;;;;;7.03;97.58;101503.97;4972502;28;19961;-65
2022/02/03 09:36:58;;;;;;;17.23;10.43;;;;;;;7.08;96.73;101494.03;5051298;28;20481;-65
2022/02/03 09:55:28;;;;;;;21.27;11.43;;;;;;;7.13;96.48;101478.97;5053263;28;20048;-67
2022/02/03 09:58:14;;;;;;;19.73;10.95;;;;;;;7.11;96.70;101484.28;5052756;28;20017;-66
2022/02/03 10:01:03;;;;;;;25.15;12.43;;;;;;;7.18;96.45;101480.16;5035022;28;20035;-66
2022/02/03 10:03:37;;;;;;;21.30;11.77;;;;;;;7.14;96.27;101485.75;5050432;28;20214;-66
2022/02/03 10:06:09;;;;;;;28.17;11.95;;;;;;;7.23;95.63;101487.44;5033197;28;20102;-66
2022/02/03 10:08:35;;;;;;;23.10;11.55;;;;;;;7.24;95.78;101491.63;5049846;28;20387;-67
2022/02/03 10:11:10;;;;;;;19.58;11.35;;;;;;;7.25;95.70;101500.97;5050905;28;20120;-66
2022/02/03 10:13:44;;;;;;;19.00;10.60;;;;;;;7.18;96.11;101498.16;5049914;28;20545;-67
2022/02/03 10:16:09;;;;;;;19.38;10.68;;;;;;;7.12;96.98;101493.59;5032353;28;20098;-66
2022/02/03 10:18:35;;;;;;;23.33;11.52;;;;;;;7.13;97.00;101492.63;5051035;28;20078;-67
2022/02/03 10:21:01;;;;;;;19.50;11.52;;;;;;;7.27;96.93;101498.22;5033645;28;20020;-67
2022/02/03 10:23:29;;;;;;;19.13;10.32;;;;;;;7.19;96.89;101497.22;5052267;28;20029;-66
2022/02/03 10:26:05;;;;;;;20.98;9.95;;;;;;;7.14;96.85;101493.47;5033946;28;20021;-66
2022/02/03 10:28:31;;;;;;;18.77;9.98;;;;;;;7.26;97.01;101494.06;5035441;28;20057;-68
2022/02/03 10:31:03;;;;;;;17.67;9.38;;;;;;;7.21;96.91;101497.06;5053132;28;20025;-67
2022/02/03 10:33:39;;;;;;;13.38;9.05;;;;;;;7.20;95.85;101485.97;5053688;28;20231;-63
2022/02/03 10:36:19;;;;;;;17.45;8.35;;;;;;;7.23;95.85;101488.25;5035828;28;20052;-64
2022/02/03 10:48:16;;;;;;;13.85;8.50;;;;;;;7.18;95.91;101469.06;5017337;28;20364;-65
2022/02/03 10:53:09;;;;;;;14.65;7.72;;;;;;;7.11;95.80;101465.50;5057126;28;20041;-64
2022/02/03 10:55:56;;;;;;;14.27;7.80;;;;;;;7.07;95.92;101456.44;5056520;28;20037;-64
2022/02/03 11:11:39;;;;;;;15.93;8.68;;;;;;;7.16;96.90;101432.41;5012116;28;20071;-65
2022/02/03 11:14:05;;;;;;;20.63;8.52;;;;;;;7.08;97.40;101417.75;5056369;28;20467;-64
2022/02/03 11:16:36;;;;;;;17.13;8.05;;;;;;;7.13;96.69;101415.53;5056274;28;20041;-66
2022/02/03 11:19:04;;;;;;;16.60;8.15;;;;;;;7.09;96.42;101410.84;5056068;28;20379;-64
2022/02/03 11:21:32;;;;;;;17.88;8.77;;;;;;;7.11;95.70;101409.75;5055738;28;20028;-65
2022/02/03 11:24:04;;;;;;;17.35;9.13;;;;;;;7.13;96.07;101414.72;5053678;28;20033;-65
2022/02/03 11:26:48;;;;;;;20.42;9.00;;;;;;;7.11;96.30;101409.75;5055815;28;20044;-65
2022/02/03 11:37:18;;;;;;;19.60;8.00;;;;;;;7.07;96.46;101390.41;5056537;28;20033;-65
2022/02/03 11:58:40;;;;;;;20.30;8.35;;;;;;;7.29;95.85;101357.50;5055331;28;20102;-64
2022/02/03 12:17:57;;;;;;;19.90;9.00;;;;;;;7.29;93.63;101329.22;5054499;28;20132;-67
2022/02/03 12:20:45;;;;;;;19.85;8.93;;;;;;;7.41;93.64;101322.84;5052697;28;20017;-66
2022/02/03 12:23:55;;;;;;;20.92;9.40;;;;;;;7.51;91.82;101325.28;5052758;28;20040;-65
2022/02/03 12:26:33;;;;;;;25.55;9.27;;;;;;;7.32;92.53;101318.63;4977422;28;20026;-62
2022/02/03 12:29:07;;;;;;;19.98;9.40;;;;;;;7.33;92.23;101318.47;5033297;28;20475;-63
2022/02/03 12:39:45;;;;;;;28.08;10.05;;;;;;;7.35;93.04;101315.75;5054815;28;20092;-64
2022/02/03 12:42:20;;;;;;;21.67;10.10;;;;;;;7.37;91.67;101306.13;5033542;28;20528;-67
2022/02/03 12:44:47;;;;;;;24.33;10.85;;;;;;;7.31;92.71;101302.41;5052143;28;20177;-64
2022/02/03 12:47:13;;;;;;;20.30;10.68;;;;;;;7.27;92.30;101303.66;5036031;28;20037;-64
2022/02/03 12:49:39;;;;;;;20.58;9.82;;;;;;;7.18;92.78;101300.22;5035265;28;20566;-65
2022/02/03 12:52:22;;;;;;;19.65;10.32;;;;;;;7.29;92.83;101304.31;5034889;28;20111;-65
2022/02/03 12:54:48;;;;;;;20.77;9.95;;;;;;;7.22;93.19;101301.53;5052458;28;20064;-66
2022/02/03 12:57:24;;;;;;;17.98;10.52;;;;;;;7.30;93.44;101290.47;5051435;28;20060;-66
2022/02/03 13:00:21;;;;;;;19.15;10.77;;;;;;;7.35;93.17;101297.75;5033975;28;20029;-65
2022/02/03 13:02:54;;;;;;;23.05;10.00;;;;;;;7.38;93.33;101302.59;5034658;28;20064;-67
2022/02/03 13:05:21;;;;;;;16.55;10.38;;;;;;;7.35;95.11;101302.91;5052708;28;20048;-65
2022/02/03 13:07:50;;;;;;;23.88;10.10;;;;;;;7.20;95.03;101306.03;5051984;28;20033;-64
2022/02/03 13:10:20;;;;;;;23.10;9.95;;;;;;;7.33;94.95;101302.22;5052253;28;20099;-66
2022/02/03 13:12:54;;;;;;;16.83;9.35;;;;;;;7.31;95.88;101293.84;5054123;28;20031;-67
2022/02/03 13:15:42;;;;;;;19.27;9.60;;;;;;;7.29;94.98;101296.59;5052368;28;20033;-65
2022/02/03 13:18:13;;;;;;;16.73;10.27;;;;;;;7.26;95.96;101290.97;5053960;28;20521;-67
2022/02/03 13:20:45;;;;;;;22.13;10.43;;;;;;;7.35;95.62;101295.97;5052825;28;20036;-66
2022/02/03 13:23:16;;;;;;;18.98;10.25;;;;;;;7.45;95.11;101293.28;5053121;28;20032;-67
2022/02/03 13:25:54;;;;;;;19.85;10.05;;;;;;;7.42;95.10;101284.13;5035993;28;20021;-66
2022/02/03 13:28:32;;;;;;;21.23;10.38;;;;;;;7.51;94.80;101281.56;5053519;28;20100;-65
2022/02/03 13:31:24;;;;;;;15.95;9.40;;;;;;;7.45;95.08;101273.53;5035305;28;20021;-66
2022/02/03 13:34:08;;;;;;;17.77;9.95;;;;;;;7.31;95.12;101263.00;5054473;28;20103;-67
2022/02/03 13:36:52;;;;;;;17.52;9.55;;;;;;;7.16;95.40;101266.19;5054746;28;20021;-66
2022/02/03 13:39:27;;;;;;;17.95;9.48;;;;;;;7.41;95.94;101267.06;5034164;28;20100;-66
2022/02/03 13:42:04;;;;;;;17.15;9.82;;;;;;;7.40;95.28;101259.53;5035991;28;20025;-66
2022/02/03 13:44:30;;;;;;;14.65;9.05;;;;;;;7.42;94.50;101273.84;5034727;28;20548;-66
2022/02/03 13:46:56;;;;;;;15.90;9.32;;;;;;;7.35;96.06;101265.13;5053471;28;20024;-66
2022/02/03 13:49:25;;;;;;;13.70;9.07;;;;;;;7.45;94.28;101258.13;5053447;28;20032;-66
2022/02/03 13:52:07;;;;;;;18.40;8.90;;;;;;;7.35;94.21;101246.31;5053160;28;20098;-63
2022/02/03 14:12:23;;;;;;;16.70;9.75;;;;;;;7.25;95.19;101236.16;5053366;28;20047;-66
2022/02/03 14:22:10;;;;;;;19.40;9.88;;;;;;;7.14;96.55;101241.56;5056829;28;20037;-66
2022/02/03 14:27:23;;;;;;;18.10;9.60;;;;;;;7.20;96.35;101241.75;5056884;28;20519;-66
2022/02/03 14:30:02;;;;;;;21.95;9.73;;;;;;;7.14;96.15;101231.28;5038383;28;20079;-65
2022/02/03 14:32:35;;;;;;;24.23;9.15;;;;;;;7.17;96.16;101231.78;5057086;28;20025;-67
2022/02/03 14:35:00;;;;;;;18.25;9.63;;;;;;;7.14;96.44;101221.00;5057000;28;20028;-64
2022/02/03 14:37:41;;;;;;;18.48;9.25;;;;;;;7.16;96.50;101221.66;5038990;28;20094;-65
2022/02/03 14:42:40;;;;;;;22.33;9.00;;;;;;;7.20;95.98;101213.50;5055491;28;20489;-67
2022/02/03 14:45:07;;;;;;;16.70;9.23;;;;;;;7.19;96.46;101219.59;5056393;28;20041;-66
2022/02/03 14:47:33;;;;;;;18.95;9.90;;;;;;;7.11;96.20;101216.97;5038202;28;20025;-67
2022/02/03 14:50:01;;;;;;;16.08;8.82;;;;;;;7.21;95.96;101215.09;5038626;28;20025;-66
2022/02/03 15:00:27;;;;;;;15.50;9.30;;;;;;;7.22;95.40;101216.72;5057459;28;20075;-67
2022/02/03 15:02:52;;;;;;;17.20;9.88;;;;;;;7.28;95.61;101205.00;5056900;28;20083;-66
2022/02/03 15:05:25;;;;;;;15.35;9.50;;;;;;;7.32;95.03;101213.22;5055103;28;20029;-67
2022/02/03 15:07:57;;;;;;;16.85;10.05;;;;;;;7.30;95.40;101204.84;5054707;28;20017;-66
2022/02/03 15:13:03;;;;;;;18.95;10.30;;;;;;;7.38;94.55;101192.03;5055515;28;20036;-66
2022/02/03 15:15:28;;;;;;;17.30;9.95;;;;;;;7.37;95.44;101188.66;5037257;28;20411;-67
2022/02/03 15:17:54;;;;;;;16.90;10.00;;;;;;;7.28;95.81;101183.63;5036933;28;20028;-67
2022/02/03 15:20:19;;;;;;;18.52;10.68;;;;;;;7.41;94.93;101192.50;5055272;28;20024;-66
2022/02/03 15:22:44;;;;;;;15.27;10.30;;;;;;;7.41;93.99;101192.50;5056180;28;20027;-65
2022/02/03 15:25:11;;;;;;;20.60;10.75;;;;;;;7.37;94.69;101198.13;5038799;28;20126;-66
2022/02/03 15:27:37;;;;;;;17.05;10.13;;;;;;;7.40;94.72;101201.19;5055893;28;20036;-67
2022/02/03 15:30:03;;;;;;;14.85;9.50;;;;;;;7.28;94.83;101199.03;5038071;28;20021;-65
2022/02/03 15:32:35;;;;;;;18.10;10.43;;;;;;;7.37;94.93;101193.78;5055460;28;20505;-64
2022/02/03 15:35:00;;;;;;;20.05;10.15;;;;;;;7.39;94.90;101191.06;5056186;28;20164;-64
2022/02/03 15:37:27;;;;;;;16.30;10.13;;;;;;;7.30;94.83;101186.84;5037841;28;20111;-66
2022/02/03 15:39:53;;;;;;;18.13;10.13;;;;;;;7.34;95.13;101194.09;5055819;28;20036;-65
2022/02/03 15:42:25;;;;;;;16.83;10.50;;;;;;;7.43;94.26;101182.09;5037855;28;20020;-68
2022/02/03 15:44:53;;;;;;;19.63;10.93;;;;;;;7.41;94.81;101173.72;5055089;28;20104;-67
2022/02/03 15:47:32;;;;;;;16.42;10.65;;;;;;;7.43;93.86;101170.03;5036834;28;20017;-65
2022/02/03 16:14:56;;;;;;;18.58;10.52;;;;;;;7.46;94.50;101181.75;5055650;28;20131;-64
2022/02/03 16:16:57;;;;;;;19.90;10.73;;;;;;;7.34;95.05;101180.44;5054640;28;20055;-65
2022/02/03 16:19:29;;;;;;;16.67;10.55;;;;;;;7.40;95.16;101183.19;5055370;28;20021;-65
2022/02/03 16:22:13;;;;;;;15.75;10.02;;;;;;;7.34;95.11;101178.69;5054715;28;20024;-65
2022/02/03 16:24:46;;;;;;;19.95;10.93;;;;;;;7.35;94.44;101182.84;5054121;28;20074;-65
2022/02/03 16:53:42;;;;;;;20.73;11.20;;;;;;;7.38;94.92;101184.31;5054684;28;20036;-62
2022/02/03 16:56:10;;;;;;;16.15;11.45;;;;;;;7.32;95.48;101174.66;5034792;28;20025;-65
2022/02/03 16:58:37;;;;;;;26.60;11.77;;;;;;;7.42;95.63;101190.75;5034114;28;20039;-66
2022/02/03 17:01:03;;;;;;;21.52;10.77;;;;;;;7.50;95.07;101172.75;5035953;28;20118;-65
2022/02/03 17:03:29;;;;;;;19.73;10.75;;;;;;;7.50;95.32;101171.97;5053763;28;20052;-65
2022/02/03 17:05:56;;;;;;;19.23;10.98;;;;;;;7.46;95.21;101181.75;5035919;28;20032;-63
2022/02/03 17:08:21;;;;;;;19.40;11.70;;;;;;;7.61;94.58;101181.97;5053925;28;20523;-65
2022/02/03 17:10:47;;;;;;;19.25;10.45;;;;;;;7.50;93.62;101175.34;5035879;28;20071;-66
2022/02/03 17:13:12;;;;;;;15.50;10.30;;;;;;;7.44;94.25;101181.09;5053476;28;20024;-66
2022/02/03 17:15:38;;;;;;;21.13;10.13;;;;;;;7.57;93.91;101183.25;5053237;28;20106;-65
2022/02/03 17:18:04;;;;;;;16.67;10.40;;;;;;;7.57;94.01;101181.47;5053631;28;20025;-64
2022/02/03 17:20:31;;;;;;;17.35;10.25;;;;;;;7.50;93.15;101177.91;5053542;28;20028;-66
2022/02/03 17:22:58;;;;;;;16.60;10.27;;;;;;;7.43;93.76;101170.03;5035619;28;20055;-66
2022/02/03 17:25:32;;;;;;;17.45;10.68;;;;;;;7.44;94.00;101168.25;5054067;28;20025;-65
2022/02/03 17:31:10;;;;;;;16.65;10.98;;;;;;;7.45;93.84;101170.69;5053761;28;20029;-66
2022/02/03 17:53:06;;;;;;;20.92;12.43;;;;;;;7.56;94.13;101169.56;5052939;28;20591;-63
2022/02/03 18:08:47;;;;;;;22.60;12.40;;;;;;;7.39;94.10;101173.06;5048620;28;20142;-65
2022/02/03 18:29:53;;;;;;;25.80;13.65;;;;;;;7.47;93.72;101167.94;5053345;28;20113;-64
2022/02/03 18:35:19;;;;;;;21.40;12.70;;;;;;;7.47;93.51;101185.94;5053007;28;20068;-63
2022/02/03 18:49:50;;;;;;;24.98;13.00;;;;;;;7.32;93.13;101166.94;4952759;29;20091;-63
2022/02/03 18:52:05;;;;;;;21.83;13.48;;;;;;;7.44;93.63;101188.81;5052409;28;20093;-64
2022/02/03 18:54:46;;;;;;;24.63;13.65;;;;;;;7.57;93.69;101185.81;5052874;28;20028;-63
2022/02/03 18:57:28;;;;;;;20.20;13.35;;;;;;;7.63;93.31;101178.28;5035154;28;20021;-64
2022/02/03 19:26:32;;;;;;;28.13;12.57;;;;;;;7.45;92.56;101164.72;5056306;28;20094;-64
2022/02/03 20:07:26;;;;;;;20.80;13.15;;;;;;;7.24;93.34;101163.38;5055497;28;20032;-62
2022/02/03 20:12:16;;;;;;;24.83;14.32;;;;;;;7.25;93.88;101156.47;5056188;28;20029;-64
2022/02/03 20:14:41;;;;;;;22.20;13.70;;;;;;;7.18;93.85;101155.47;5037863;28;20186;-63
2022/02/03 20:17:06;;;;;;;23.80;14.40;;;;;;;7.21;93.83;101166.25;5037266;28;20037;-62
2022/02/03 20:19:32;;;;;;;25.85;14.27;;;;;;;7.21;93.88;101163.69;5037191;28;20529;-63
2022/02/03 20:21:57;;;;;;;22.13;13.77;;;;;;;7.24;94.27;101163.38;5055365;28;20048;-62
2022/02/03 20:24:24;;;;;;;23.38;14.52;;;;;;;7.33;94.30;101171.09;5055403;28;20108;-64
2022/02/03 20:26:49;;;;;;;23.52;13.68;;;;;;;7.39;92.76;101170.47;5037351;28;20028;-63
2022/02/03 20:29:14;;;;;;;22.70;14.50;;;;;;;7.32;93.48;101167.75;5037207;28;20025;-63
2022/02/03 20:31:41;;;;;;;24.17;13.90;;;;;;;7.29;93.39;101156.97;5054990;28;20049;-62
2022/02/03 20:34:06;;;;;;;25.95;15.15;;;;;;;7.24;93.94;101152.28;5055107;28;20415;-62
2022/02/03 20:36:31;;;;;;;23.02;14.57;;;;;;;7.21;93.70;101135.41;5054824;28;20025;-63
2022/02/03 20:38:56;;;;;;;25.08;14.93;;;;;;;7.22;93.92;101137.03;5054847;28;20024;-65
2022/02/03 20:41:22;;;;;;;26.58;14.52;;;;;;;7.03;94.20;101136.47;5036740;28;20027;-65
2022/02/03 20:43:48;;;;;;;25.60;15.38;;;;;;;7.09;95.19;101141.78;5054481;28;20096;-64
2022/02/03 20:46:13;;;;;;;24.30;14.13;;;;;;;7.04;94.64;101143.22;5053735;28;20021;-64
2022/02/03 20:48:45;;;;;;;24.17;15.15;;;;;;;6.96;94.37;101131.13;5054128;28;20064;-64
2022/02/03 20:51:13;;;;;;;24.60;15.18;;;;;;;7.01;94.31;101136.63;5054734;28;20349;-64
2022/02/03 20:53:38;;;;;;;26.77;14.50;;;;;;;7.04;94.52;101143.22;5036164;28;20021;-64
2022/02/03 20:56:04;;;;;;;26.45;14.80;;;;;;;7.10;94.02;101145.16;5036310;28;20027;-64
2022/02/03 20:58:29;;;;;;;24.63;14.90;;;;;;;6.89;94.34;101123.25;5054134;28;20459;-64
2022/02/03 21:00:58;;;;;;;28.25;14.95;;;;;;;7.09;93.84;101138.41;5054608;28;20422;-63
2022/02/03 21:03:42;;;;;;;28.42;15.20;;;;;;;7.07;93.67;101142.91;5054350;28;20027;-62
2022/02/03 21:06:12;;;;;;;26.88;15.18;;;;;;;7.11;93.34;101139.09;5054143;28;20482;-63
2022/02/03 21:08:40;;;;;;;25.50;14.48;;;;;;;7.00;93.75;101120.41;5036108;28;20028;-63
2022/02/03 21:11:06;;;;;;;23.73;14.68;;;;;;;7.09;93.05;101133.28;5053895;28;20455;-63
2022/02/03 21:13:32;;;;;;;25.73;14.40;;;;;;;7.06;93.76;101136.97;5054573;28;20032;-62
2022/02/03 21:16:00;;;;;;;22.98;13.82;;;;;;;7.06;93.63;101141.31;5035809;28;20052;-62
2022/02/03 21:18:26;;;;;;;27.35;14.75;;;;;;;7.03;93.75;101137.28;5035807;28;20033;-63
2022/02/03 21:20:51;;;;;;;25.27;14.73;;;;;;;6.96;93.58;101128.56;5053783;28;20570;-63
2022/02/03 21:23:17;;;;;;;23.38;13.30;;;;;;;7.01;93.70;101141.75;5053821;28;20104;-63
2022/02/03 21:25:46;;;;;;;25.15;14.23;;;;;;;6.94;93.82;101140.78;5053805;28;20108;-64
2022/02/03 21:28:21;;;;;;;23.17;13.57;;;;;;;6.98;93.89;101136.94;5035705;28;20031;-63
2022/02/03 21:30:50;;;;;;;26.08;14.13;;;;;;;6.92;93.92;101134.97;5035683;28;20061;-63
2022/02/03 21:33:23;;;;;;;26.48;14.18;;;;;;;6.85;93.69;101132.22;5053724;28;20027;-63
2022/02/03 21:35:49;;;;;;;24.05;14.05;;;;;;;6.92;93.56;101138.34;5035762;28;20387;-63
2022/02/03 21:38:16;;;;;;;24.73;13.68;;;;;;;6.83;93.74;101130.75;5053775;28;20028;-65
2022/02/03 21:40:42;;;;;;;25.45;13.10;;;;;;;6.95;93.25;101135.47;5052847;28;20086;-64
2022/02/03 21:43:07;;;;;;;26.25;13.90;;;;;;;6.96;93.19;101138.84;5053216;28;20021;-65
2022/02/03 21:45:32;;;;;;;26.27;13.10;;;;;;;6.91;93.31;101134.19;5035574;28;20029;-63
2022/02/03 21:47:59;;;;;;;24.50;13.52;;;;;;;7.05;93.00;101135.38;5053367;28;20112;-63
2022/02/03 21:50:30;;;;;;;24.52;14.23;;;;;;;7.07;93.12;101138.56;5034960;28;20486;-63
2022/02/03 21:52:55;;;;;;;24.13;13.48;;;;;;;6.97;93.24;101127.63;5052925;28;20025;-63
2022/02/03 21:55:21;;;;;;;27.10;14.13;;;;;;;7.11;93.05;101127.03;5053531;28;20032;-63